Terminal Aerodrome Forecast
Issued by NWS

Home | Current Version | Previous Version | Text Only | Print | Product List | Glossary On
Versions: 1 2 3 4 5 6 7 8 9 10 11 12 13 14 15 16 17
000
FTUS46 KMTR 260526
TAFSTS
TAF
KSTS 260526Z 2606/2706 18008KT P6SM SKC
      TEMPO 2606/2607 3SM BR BKN005
     FM260700 19003KT 2SM BR OVC005
     FM261730 21004KT P6SM BKN010
     FM261800 19008KT P6SM SKC
     FM270300 19004KT P6SM SKC=

USA.gov is the U.S. government's official web portal to all federal, state and local government web resources and services.